Time,TemperatureF,DewpointF,PressureIn,WindDirection,WindDirectionDegrees,WindSpeedMPH,WindSpeedGustMPH,Humidity,HourlyPrecipIn,Conditions,Clouds,dailyrainin,SoftwareType,DateUTC
2013-03-14 00:00:00,23.5,18.5,30.14,South,184,0.0,6.0,81,0.00,,,0.00,WUHU216DAVISVP2,2013-03-14 05:00:00,
2013-03-14 00:05:00,23.6,18.6,30.14,SSE,151,0.0,9.0,81,0.00,,,0.00,WUHU216DAVISVP2,2013-03-14 05:05:00,
2013-03-14 00:10:00,23.8,18.8,30.14,SSE,155,0.0,10.0,81,0.00,,,0.00,WUHU216DAVISVP2,2013-03-14 05:10:00,
2013-03-14 00:15:00,24.0,19.0,30.14,SE,142,6.0,11.0,81,0.00,,,0.00,WUHU216DAVISVP2,2013-03-14 05:15:00,
2013-03-14 00:20:00,24.3,19.3,30.14,SE,141,1.0,11.0,81,0.00,,,0.00,WUHU216DAVISVP2,2013-03-14 05:20:00,
2013-03-14 00:25:00,24.5,19.5,30.14,SSE,163,3.0,8.0,81,0.00,,,0.00,WUHU216DAVISVP2,2013-03-14 05:25:00,
2013-03-14 00:30:00,24.7,19.7,30.14,SSE,165,1.0,9.0,81,0.00,,,0.00,WUHU216DAVISVP2,2013-03-14 05:30:00,
2013-03-14 00:35:00,24.8,19.8,30.13,South,172,0.0,9.0,81,0.00,,,0.00,WUHU216DAVISVP2,2013-03-14 05:35:00,
2013-03-14 00:40:00,24.9,19.9,30.13,SE,136,3.0,5.0,81,0.00,,,0.00,WUHU216DAVISVP2,2013-03-14 05:40:00,
2013-03-14 00:45:00,25.1,20.1,30.13,South,172,0.0,5.0,81,0.00,,,0.00,WUHU216DAVISVP2,2013-03-14 05:45:00,
2013-03-14 00:50:00,25.2,20.2,30.14,SE,142,0.0,5.0,81,0.00,,,0.00,WUHU216DAVISVP2,2013-03-14 05:50:00,
2013-03-14 00:55:00,25.3,20.3,30.13,SSE,166,0.0,9.0,81,0.00,,,0.00,WUHU216DAVISVP2,2013-03-14 05:55:00,
2013-03-14 01:00:00,25.5,20.5,30.13,South,184,0.0,9.0,81,0.00,,,0.00,WUHU216DAVISVP2,2013-03-14 06:00:00,
2013-03-14 01:05:00,25.6,20.6,30.13,SSE,163,4.0,9.0,81,0.00,,,0.00,WUHU216DAVISVP2,2013-03-14 06:05:00,
2013-03-14 01:10:00,25.7,20.7,30.13,South,169,1.0,10.0,81,0.00,,,0.00,WUHU216DAVISVP2,2013-03-14 06:10:00,
2013-03-14 01:15:00,25.9,20.9,30.12,SSE,164,9.0,11.0,81,0.00,,,0.00,WUHU216DAVISVP2,2013-03-14 06:15:00,
2013-03-14 01:20:00,26.1,21.1,30.12,SSE,157,0.0,11.0,81,0.00,,,0.00,WUHU216DAVISVP2,2013-03-14 06:20:00,
2013-03-14 01:25:00,26.2,21.2,30.12,ESE,117,9.0,12.0,81,0.00,,,0.00,WUHU216DAVISVP2,2013-03-14 06:25:00,
2013-03-14 01:30:00,26.4,21.1,30.12,SSE,157,6.0,12.0,80,0.00,,,0.00,WUHU216DAVISVP2,2013-03-14 06:30:00,
2013-03-14 01:35:00,26.5,21.2,30.11,South,175,1.0,11.0,80,0.00,,,0.00,WUHU216DAVISVP2,2013-03-14 06:35:00,
2013-03-14 01:40:00,26.6,21.3,30.11,South,188,2.0,11.0,80,0.00,,,0.00,WUHU216DAVISVP2,2013-03-14 06:40:00,
2013-03-14 01:45:00,26.7,21.4,30.10,South,180,2.0,10.0,80,0.00,,,0.00,WUHU216DAVISVP2,2013-03-14 06:45:00,
2013-03-14 01:50:00,26.8,21.5,30.10,SSE,161,0.0,16.0,80,0.00,,,0.00,WUHU216DAVISVP2,2013-03-14 06:50:00,
2013-03-14 01:55:00,26.9,21.6,30.10,South,172,0.0,16.0,80,0.00,,,0.00,WUHU216DAVISVP2,2013-03-14 06:55:00,
2013-03-14 02:00:00,27.0,21.7,30.11,SE,143,5.0,11.0,80,0.00,,,0.00,WUHU216DAVISVP2,2013-03-14 07:00:00,
2013-03-14 02:05:00,27.1,21.8,30.11,SSE,155,7.0,11.0,80,0.00,,,0.00,WUHU216DAVISVP2,2013-03-14 07:05:00,
2013-03-14 02:10:00,27.2,21.9,30.11,South,178,0.0,11.0,80,0.00,,,0.00,WUHU216DAVISVP2,2013-03-14 07:10:00,
2013-03-14 02:15:00,27.3,21.9,30.11,SE,145,0.0,12.0,80,0.00,,,0.00,WUHU216DAVISVP2,2013-03-14 07:15:00,
2013-03-14 02:20:00,27.3,21.9,30.11,SSE,162,0.0,14.0,80,0.00,,,0.00,WUHU216DAVISVP2,2013-03-14 07:20:00,
2013-03-14 02:25:00,27.3,21.9,30.12,SE,135,2.0,14.0,80,0.00,,,0.00,WUHU216DAVISVP2,2013-03-14 07:25:00,
2013-03-14 02:30:00,27.2,21.9,30.11,SSE,152,6.0,6.0,80,0.00,,,0.00,WUHU216DAVISVP2,2013-03-14 07:30:00,
2013-03-14 02:35:00,27.1,22.0,30.11,SSE,157,0.0,7.0,81,0.00,,,0.00,WUHU216DAVISVP2,2013-03-14 07:35:00,
2013-03-14 02:40:00,27.0,21.9,30.11,SSE,167,2.0,8.0,81,0.00,,,0.00,WUHU216DAVISVP2,2013-03-14 07:40:00,
2013-03-14 02:45:00,27.0,21.9,30.11,SSE,168,0.0,8.0,81,0.00,,,0.00,WUHU216DAVISVP2,2013-03-14 07:45:00,
2013-03-14 02:50:00,27.0,21.9,30.10,SSE,159,8.0,8.0,81,0.00,,,0.00,WUHU216DAVISVP2,2013-03-14 07:50:00,
2013-03-14 02:55:00,27.0,21.9,30.10,SSE,166,0.0,8.0,81,0.00,,,0.00,WUHU216DAVISVP2,2013-03-14 07:55:00,
2013-03-14 03:00:00,27.0,21.9,30.10,South,177,2.0,6.0,81,0.00,,,0.00,WUHU216DAVISVP2,2013-03-14 08:00:00,
2013-03-14 03:05:00,27.1,22.0,30.10,SSE,160,1.0,7.0,81,0.00,,,0.00,WUHU216DAVISVP2,2013-03-14 08:05:00,
2013-03-14 03:10:00,27.1,22.0,30.10,SSE,160,1.0,7.0,81,0.00,,,0.00,WUHU216DAVISVP2,2013-03-14 08:10:00,
2013-03-14 03:15:00,27.1,22.0,30.10,SSE,148,1.0,9.0,81,0.00,,,0.00,WUHU216DAVISVP2,2013-03-14 08:15:00,
2013-03-14 03:20:00,27.0,21.9,30.10,SSE,165,0.0,9.0,81,0.00,,,0.00,WUHU216DAVISVP2,2013-03-14 08:20:00,
2013-03-14 03:25:00,26.9,21.8,30.09,South,189,0.0,7.0,81,0.00,,,0.00,WUHU216DAVISVP2,2013-03-14 08:25:00,
2013-03-14 03:30:00,26.8,21.7,30.09,SSE,152,0.0,4.0,81,0.00,,,0.00,WUHU216DAVISVP2,2013-03-14 08:30:00,
2013-03-14 03:35:00,26.7,21.7,30.09,South,169,0.0,7.0,81,0.00,,,0.00,WUHU216DAVISVP2,2013-03-14 08:35:00,
2013-03-14 03:40:00,26.7,21.7,30.09,SSE,161,0.0,7.0,81,0.00,,,0.00,WUHU216DAVISVP2,2013-03-14 08:40:00,
2013-03-14 03:45:00,26.5,21.5,30.09,SSE,166,2.0,6.0,81,0.00,,,0.00,WUHU216DAVISVP2,2013-03-14 08:45:00,
2013-03-14 03:50:00,26.4,21.4,30.09,SSE,163,0.0,8.0,81,0.00,,,0.00,WUHU216DAVISVP2,2013-03-14 08:50:00,
2013-03-14 03:55:00,26.3,21.3,30.09,SSE,159,0.0,8.0,81,0.00,,,0.00,WUHU216DAVISVP2,2013-03-14 08:55:00,
2013-03-14 04:00:00,26.3,21.3,30.08,South,187,0.0,4.0,81,0.00,,,0.00,WUHU216DAVISVP2,2013-03-14 09:00:00,
2013-03-14 04:05:00,26.3,21.5,30.08,SSE,158,0.0,6.0,82,0.00,,,0.00,WUHU216DAVISVP2,2013-03-14 09:05:00,
2013-03-14 04:10:00,26.3,21.5,30.08,SE,134,3.0,6.0,82,0.00,,,0.00,WUHU216DAVISVP2,2013-03-14 09:10:00,
2013-03-14 04:15:00,26.4,21.4,30.08,South,178,2.0,6.0,81,0.00,,,0.00,WUHU216DAVISVP2,2013-03-14 09:15:00,
2013-03-14 04:20:00,26.5,21.5,30.08,SSE,163,1.0,5.0,81,0.00,,,0.00,WUHU216DAVISVP2,2013-03-14 09:20:00,
2013-03-14 04:25:00,26.5,21.5,30.08,SSE,148,4.0,5.0,81,0.00,,,0.00,WUHU216DAVISVP2,2013-03-14 09:25:00,
2013-03-14 04:30:00,26.5,21.5,30.08,SSE,156,0.0,6.0,81,0.00,,,0.00,WUHU216DAVISVP2,2013-03-14 09:30:00,
2013-03-14 04:35:00,26.5,21.5,30.08,SSE,161,0.0,6.0,81,0.00,,,0.00,WUHU216DAVISVP2,2013-03-14 09:35:00,
2013-03-14 04:40:00,26.6,21.6,30.08,SSE,150,0.0,9.0,81,0.00,,,0.00,WUHU216DAVISVP2,2013-03-14 09:40:00,
2013-03-14 04:45:00,26.5,21.5,30.08,SSE,163,2.0,9.0,81,0.00,,,0.00,WUHU216DAVISVP2,2013-03-14 09:45:00,
2013-03-14 04:50:00,26.5,21.5,30.08,SSE,159,0.0,7.0,81,0.00,,,0.00,WUHU216DAVISVP2,2013-03-14 09:50:00,
2013-03-14 04:55:00,26.5,21.5,30.08,SSE,163,0.0,5.0,81,0.00,,,0.00,WUHU216DAVISVP2,2013-03-14 09:55:00,
2013-03-14 05:00:00,26.5,21.5,30.08,South,180,0.0,5.0,81,0.00,,,0.00,WUHU216DAVISVP2,2013-03-14 10:00:00,
2013-03-14 05:05:00,26.3,21.3,30.08,SSE,167,0.0,0.0,81,0.00,,,0.00,WUHU216DAVISVP2,2013-03-14 10:05:00,
2013-03-14 05:10:00,26.2,21.2,30.08,South,175,0.0,5.0,81,0.00,,,0.00,WUHU216DAVISVP2,2013-03-14 10:10:00,
2013-03-14 05:15:00,26.2,21.2,30.09,SSE,163,0.0,6.0,81,0.00,,,0.00,WUHU216DAVISVP2,2013-03-14 10:15:00,
2013-03-14 05:20:00,26.1,21.1,30.08,SSE,165,0.0,6.0,81,0.00,,,0.00,WUHU216DAVISVP2,2013-03-14 10:20:00,
2013-03-14 05:25:00,25.9,20.9,30.08,SSE,167,0.0,0.0,81,0.00,,,0.00,WUHU216DAVISVP2,2013-03-14 10:25:00,
2013-03-14 05:30:00,25.8,20.8,30.08,SSE,165,0.0,2.0,81,0.00,,,0.00,WUHU216DAVISVP2,2013-03-14 10:30:00,
2013-03-14 05:35:00,25.6,20.6,30.08,South,171,0.0,2.0,81,0.00,,,0.00,WUHU216DAVISVP2,2013-03-14 10:35:00,
2013-03-14 05:40:00,25.4,20.4,30.09,SSE,165,0.0,3.0,81,0.00,,,0.00,WUHU216DAVISVP2,2013-03-14 10:40:00,
2013-03-14 05:45:00,25.3,20.3,30.09,South,187,0.0,4.0,81,0.00,,,0.00,WUHU216DAVISVP2,2013-03-14 10:45:00,
2013-03-14 05:50:00,25.1,20.1,30.09,South,187,0.0,4.0,81,0.00,,,0.00,WUHU216DAVISVP2,2013-03-14 10:50:00,
2013-03-14 05:55:00,24.9,19.9,30.10,South,172,0.0,0.0,81,0.00,,,0.00,WUHU216DAVISVP2,2013-03-14 10:55:00,
2013-03-14 06:00:00,24.8,20.1,30.10,South,172,0.0,0.0,82,0.00,,,0.00,WUHU216DAVISVP2,2013-03-14 11:00:00,
2013-03-14 06:05:00,24.5,19.5,30.10,South,173,0.0,0.0,81,0.00,,,0.00,WUHU216DAVISVP2,2013-03-14 11:05:00,
2013-03-14 06:10:00,24.2,19.2,30.11,South,173,0.0,0.0,81,0.00,,,0.00,WUHU216DAVISVP2,2013-03-14 11:10:00,
2013-03-14 06:15:00,23.9,18.9,30.11,South,172,0.0,0.0,81,0.00,,,0.00,WUHU216DAVISVP2,2013-03-14 11:15:00,
2013-03-14 06:20:00,23.5,18.8,30.11,South,172,0.0,0.0,82,0.00,,,0.00,WUHU216DAVISVP2,2013-03-14 11:20:00,
2013-03-14 06:25:00,23.2,18.5,30.11,South,172,0.0,0.0,82,0.00,,,0.00,WUHU216DAVISVP2,2013-03-14 11:25:00,
2013-03-14 06:30:00,23.0,18.3,30.11,South,173,0.0,0.0,82,0.00,,,0.00,WUHU216DAVISVP2,2013-03-14 11:30:00,
2013-03-14 06:35:00,22.8,18.4,30.11,South,173,0.0,0.0,83,0.00,,,0.00,WUHU216DAVISVP2,2013-03-14 11:35:00,
2013-03-14 06:40:00,22.6,18.2,30.11,South,172,0.0,0.0,83,0.00,,,0.00,WUHU216DAVISVP2,2013-03-14 11:40:00,
2013-03-14 06:45:00,22.5,18.1,30.11,South,172,0.0,0.0,83,0.00,,,0.00,WUHU216DAVISVP2,2013-03-14 11:45:00,
2013-03-14 06:50:00,22.3,17.9,30.11,South,173,0.0,0.0,83,0.00,,,0.00,WUHU216DAVISVP2,2013-03-14 11:50:00,
2013-03-14 06:55:00,22.1,17.7,30.11,South,173,0.0,0.0,83,0.00,,,0.00,WUHU216DAVISVP2,2013-03-14 11:55:00,
2013-03-14 07:00:00,22.0,17.6,30.12,South,173,0.0,0.0,83,0.00,,,0.00,WUHU216DAVISVP2,2013-03-14 12:00:00,
2013-03-14 07:05:00,21.8,17.4,30.12,South,172,0.0,0.0,83,0.00,,,0.00,WUHU216DAVISVP2,2013-03-14 12:05:00,
2013-03-14 07:10:00,21.8,17.4,30.12,South,173,0.0,0.0,83,0.00,,,0.00,WUHU216DAVISVP2,2013-03-14 12:10:00,
2013-03-14 07:15:00,21.7,17.6,30.12,South,172,0.0,0.0,84,0.00,,,0.00,WUHU216DAVISVP2,2013-03-14 12:15:00,
2013-03-14 07:20:00,21.6,17.5,30.12,South,172,0.0,0.0,84,0.00,,,0.00,WUHU216DAVISVP2,2013-03-14 12:20:00,
2013-03-14 07:25:00,21.5,17.4,30.12,South,173,0.0,0.0,84,0.00,,,0.00,WUHU216DAVISVP2,2013-03-14 12:25:00,
2013-03-14 07:30:00,21.4,17.3,30.12,South,173,0.0,0.0,84,0.00,,,0.00,WUHU216DAVISVP2,2013-03-14 12:30:00,
2013-03-14 07:35:00,21.4,17.3,30.12,South,173,0.0,0.0,84,0.00,,,0.00,WUHU216DAVISVP2,2013-03-14 12:35:00,
2013-03-14 07:40:00,21.4,17.3,30.12,South,172,0.0,0.0,84,0.00,,,0.00,WUHU216DAVISVP2,2013-03-14 12:40:00,
2013-03-14 07:45:00,21.3,17.2,30.12,South,173,0.0,0.0,84,0.00,,,0.00,WUHU216DAVISVP2,2013-03-14 12:45:00,
2013-03-14 07:50:00,21.3,17.2,30.12,South,173,0.0,0.0,84,0.00,,,0.00,WUHU216DAVISVP2,2013-03-14 12:50:00,
2013-03-14 07:55:00,21.2,17.1,30.12,South,173,0.0,0.0,84,0.00,,,0.00,WUHU216DAVISVP2,2013-03-14 12:55:00,
2013-03-14 08:00:00,21.1,17.0,30.12,South,172,0.0,0.0,84,0.00,,,0.00,WUHU216DAVISVP2,2013-03-14 13:00:00,
2013-03-14 08:05:00,21.3,17.2,30.12,South,172,0.0,0.0,84,0.00,,,0.00,WUHU216DAVISVP2,2013-03-14 13:05:00,
2013-03-14 08:10:00,21.6,17.8,30.12,South,173,0.0,0.0,85,0.00,,,0.00,WUHU216DAVISVP2,2013-03-14 13:10:00,
2013-03-14 08:15:00,22.1,18.3,30.12,South,173,0.0,0.0,85,0.00,,,0.00,WUHU216DAVISVP2,2013-03-14 13:15:00,
2013-03-14 08:20:00,22.5,18.6,30.12,South,172,0.0,0.0,85,0.00,,,0.00,WUHU216DAVISVP2,2013-03-14 13:20:00,
2013-03-14 08:25:00,23.1,19.2,30.12,South,172,0.0,0.0,85,0.00,,,0.00,WUHU216DAVISVP2,2013-03-14 13:25:00,
2013-03-14 08:30:00,23.7,19.8,30.13,South,173,0.0,0.0,85,0.00,,,0.00,WUHU216DAVISVP2,2013-03-14 13:30:00,
2013-03-14 08:35:00,24.2,20.0,30.13,South,173,0.0,0.0,84,0.00,,,0.00,WUHU216DAVISVP2,2013-03-14 13:35:00,
2013-03-14 08:40:00,24.4,20.2,30.12,South,173,0.0,0.0,84,0.00,,,0.00,WUHU216DAVISVP2,2013-03-14 13:40:00,
2013-03-14 08:45:00,24.6,20.2,30.12,South,173,0.0,0.0,83,0.00,,,0.00,WUHU216DAVISVP2,2013-03-14 13:45:00,
2013-03-14 08:50:00,24.8,20.1,30.13,South,173,0.0,0.0,82,0.00,,,0.00,WUHU216DAVISVP2,2013-03-14 13:50:00,
2013-03-14 08:55:00,24.9,20.2,30.13,South,172,0.0,0.0,82,0.00,,,0.00,WUHU216DAVISVP2,2013-03-14 13:55:00,
2013-03-14 09:00:00,25.2,20.5,30.13,South,173,2.0,4.0,82,0.00,,,0.00,WUHU216DAVISVP2,2013-03-14 14:00:00,
2013-03-14 09:05:00,25.4,20.4,30.13,South,173,0.0,4.0,81,0.00,,,0.00,WUHU216DAVISVP2,2013-03-14 14:05:00,
2013-03-14 09:10:00,25.3,20.3,30.13,South,188,4.0,7.0,81,0.00,,,0.00,WUHU216DAVISVP2,2013-03-14 14:10:00,
2013-03-14 09:14:00,25.4,20.4,30.14,South,188,2.0,7.0,81,0.00,,,0.00,WUHU216DAVISVP2,2013-03-14 14:14:00,
2013-03-14 09:20:00,25.5,20.5,30.15,SSW,193,3.0,6.0,81,0.00,,,0.00,WUHU216DAVISVP2,2013-03-14 14:20:00,
2013-03-14 09:25:00,25.6,20.6,30.16,SSW,199,0.0,6.0,81,0.00,,,0.00,WUHU216DAVISVP2,2013-03-14 14:25:00,
2013-03-14 09:29:00,25.7,20.4,30.16,SSW,201,0.0,6.0,80,0.00,,,0.00,WUHU216DAVISVP2,2013-03-14 14:29:00,
2013-03-14 09:34:00,25.7,20.4,30.15,South,178,2.0,8.0,80,0.00,,,0.00,WUHU216DAVISVP2,2013-03-14 14:34:00,
2013-03-14 09:39:00,25.7,20.4,30.16,SSW,195,4.0,8.0,80,0.00,,,0.00,WUHU216DAVISVP2,2013-03-14 14:39:00,
2013-03-14 09:45:00,25.7,20.4,30.15,SSW,196,3.0,7.0,80,0.00,,,0.00,WUHU216DAVISVP2,2013-03-14 14:45:00,
2013-03-14 09:49:00,25.7,20.4,30.15,SSW,194,0.0,7.0,80,0.00,,,0.00,WUHU216DAVISVP2,2013-03-14 14:49:00,
2013-03-14 09:55:00,26.0,20.7,30.14,South,178,0.0,7.0,80,0.00,,,0.00,WUHU216DAVISVP2,2013-03-14 14:55:00,
2013-03-14 10:00:00,26.1,20.8,30.14,South,188,2.0,6.0,80,0.00,,,0.00,WUHU216DAVISVP2,2013-03-14 15:00:00,
2013-03-14 10:05:00,26.3,20.7,30.14,South,186,3.0,6.0,79,0.00,,,0.00,WUHU216DAVISVP2,2013-03-14 15:05:00,
2013-03-14 10:10:00,26.6,21.0,30.13,South,186,1.0,4.0,79,0.00,,,0.00,WUHU216DAVISVP2,2013-03-14 15:10:00,
2013-03-14 10:15:00,26.8,21.2,30.13,South,178,2.0,6.0,79,0.00,,,0.00,WUHU216DAVISVP2,2013-03-14 15:15:00,
2013-03-14 10:20:00,26.9,21.0,30.13,South,180,0.0,6.0,78,0.00,,,0.00,WUHU216DAVISVP2,2013-03-14 15:20:00,
2013-03-14 10:25:00,27.1,21.2,30.14,SSW,193,3.0,7.0,78,0.00,,,0.00,WUHU216DAVISVP2,2013-03-14 15:25:00,
2013-03-14 10:30:00,27.4,21.5,30.13,SSE,168,0.0,7.0,78,0.00,,,0.00,WUHU216DAVISVP2,2013-03-14 15:30:00,
2013-03-14 10:35:00,27.8,21.8,30.14,SSE,167,2.0,5.0,78,0.00,,,0.00,WUHU216DAVISVP2,2013-03-14 15:35:00,
2013-03-14 10:39:00,28.1,22.1,30.14,South,186,5.0,7.0,78,0.00,,,0.00,WUHU216DAVISVP2,2013-03-14 15:39:00,
2013-03-14 10:45:00,28.4,22.1,30.14,SSW,205,8.0,8.0,77,0.00,,,0.00,WUHU216DAVISVP2,2013-03-14 15:45:00,
2013-03-14 10:50:00,28.5,22.2,30.14,South,179,1.0,10.0,77,0.00,,,0.00,WUHU216DAVISVP2,2013-03-14 15:50:00,
2013-03-14 10:55:00,28.7,22.1,30.14,South,182,1.0,10.0,76,0.00,,,0.00,WUHU216DAVISVP2,2013-03-14 15:55:00,
2013-03-14 11:00:00,28.8,22.2,30.13,SE,146,6.0,10.0,76,0.00,,,0.00,WUHU216DAVISVP2,2013-03-14 16:00:00,
2013-03-14 11:05:00,28.5,21.6,30.13,SSW,194,0.0,9.0,75,0.00,,,0.00,WUHU216DAVISVP2,2013-03-14 16:05:00,
2013-03-14 11:10:00,29.0,22.4,30.13,South,186,4.0,9.0,76,0.00,,,0.00,WUHU216DAVISVP2,2013-03-14 16:10:00,
2013-03-14 11:15:00,29.5,22.6,30.12,SSW,194,1.0,7.0,75,0.00,,,0.00,WUHU216DAVISVP2,2013-03-14 16:15:00,
2013-03-14 11:20:00,30.2,23.3,30.13,South,173,3.0,7.0,75,0.00,,,0.00,WUHU216DAVISVP2,2013-03-14 16:20:00,
2013-03-14 11:25:00,30.7,23.1,30.13,South,179,2.0,10.0,73,0.00,,,0.00,WUHU216DAVISVP2,2013-03-14 16:25:00,
2013-03-14 11:30:00,30.3,22.4,30.13,SSE,159,0.0,10.0,72,0.00,,,0.00,WUHU216DAVISVP2,2013-03-14 16:30:00,
2013-03-14 11:35:00,30.5,22.9,30.12,South,171,4.0,10.0,73,0.00,,,0.00,WUHU216DAVISVP2,2013-03-14 16:35:00,
2013-03-14 11:40:00,30.5,22.6,30.13,South,179,3.0,12.0,72,0.00,,,0.00,WUHU216DAVISVP2,2013-03-14 16:40:00,
2013-03-14 11:45:00,30.1,22.2,30.14,SSW,201,4.0,12.0,72,0.00,,,0.00,WUHU216DAVISVP2,2013-03-14 16:45:00,
2013-03-14 11:50:00,30.4,22.8,30.14,SSW,196,8.0,13.0,73,0.00,,,0.00,WUHU216DAVISVP2,2013-03-14 16:50:00,
2013-03-14 11:55:00,30.5,22.6,30.15,SSW,195,5.0,13.0,72,0.00,,,0.00,WUHU216DAVISVP2,2013-03-14 16:55:00,
2013-03-14 12:00:00,30.2,22.3,30.14,South,190,3.0,12.0,72,0.00,,,0.00,WUHU216DAVISVP2,2013-03-14 17:00:00,
2013-03-14 12:05:00,30.2,22.3,30.15,SSW,196,5.0,12.0,72,0.00,,,0.00,WUHU216DAVISVP2,2013-03-14 17:05:00,
2013-03-14 12:10:00,30.9,23.3,30.15,SSW,206,1.0,12.0,73,0.00,,,0.00,WUHU216DAVISVP2,2013-03-14 17:10:00,
2013-03-14 12:15:00,32.1,24.1,30.15,SSW,205,4.0,7.0,72,0.00,,,0.00,WUHU216DAVISVP2,2013-03-14 17:15:00,
2013-03-14 12:20:00,32.8,24.2,30.15,SSW,200,3.0,9.0,70,0.00,,,0.00,WUHU216DAVISVP2,2013-03-14 17:20:00,
2013-03-14 12:25:00,32.7,24.1,30.15,SSW,200,5.0,9.0,70,0.00,,,0.00,WUHU216DAVISVP2,2013-03-14 17:25:00,
2013-03-14 12:30:00,32.5,24.2,30.15,WSW,240,2.0,9.0,71,0.00,,,0.00,WUHU216DAVISVP2,2013-03-14 17:30:00,
2013-03-14 12:35:00,32.8,24.2,30.15,SSW,211,3.0,7.0,70,0.00,,,0.00,WUHU216DAVISVP2,2013-03-14 17:35:00,
2013-03-14 12:40:00,32.9,24.2,30.15,WSW,240,0.0,7.0,70,0.00,,,0.00,WUHU216DAVISVP2,2013-03-14 17:40:00,
2013-03-14 12:45:00,33.3,24.6,30.15,SW,223,0.0,7.0,70,0.00,,,0.00,WUHU216DAVISVP2,2013-03-14 17:45:00,
2013-03-14 12:50:00,33.9,25.2,30.15,SSW,198,3.0,6.0,70,0.00,,,0.00,WUHU216DAVISVP2,2013-03-14 17:50:00,
2013-03-14 12:55:00,34.4,25.3,30.15,SW,232,0.0,6.0,69,0.00,,,0.00,WUHU216DAVISVP2,2013-03-14 17:55:00,
2013-03-14 13:00:00,34.7,25.6,30.14,SW,222,0.0,3.0,69,0.00,,,0.00,WUHU216DAVISVP2,2013-03-14 18:00:00,
2013-03-14 13:05:00,34.4,25.0,30.13,SSW,205,0.0,6.0,68,0.00,,,0.00,WUHU216DAVISVP2,2013-03-14 18:05:00,
2013-03-14 13:10:00,33.8,24.8,30.13,SSW,200,0.0,8.0,69,0.00,,,0.00,WUHU216DAVISVP2,2013-03-14 18:10:00,
2013-03-14 13:15:00,33.4,24.7,30.12,SSW,192,7.0,9.0,70,0.00,,,0.00,WUHU216DAVISVP2,2013-03-14 18:15:00,
2013-03-14 13:20:00,32.9,24.6,30.12,South,176,0.0,9.0,71,0.00,,,0.00,WUHU216DAVISVP2,2013-03-14 18:20:00,
2013-03-14 13:25:00,32.9,24.9,30.12,SSW,195,5.0,7.0,72,0.00,,,0.00,WUHU216DAVISVP2,2013-03-14 18:25:00,
2013-03-14 13:30:00,33.0,25.0,30.13,South,191,2.0,7.0,72,0.00,,,0.00,WUHU216DAVISVP2,2013-03-14 18:30:00,
2013-03-14 13:35:00,34.1,26.1,30.13,SW,236,0.0,7.0,72,0.00,,,0.00,WUHU216DAVISVP2,2013-03-14 18:35:00,
2013-03-14 13:40:00,35.2,26.8,30.13,SW,234,0.0,5.0,71,0.00,,,0.00,WUHU216DAVISVP2,2013-03-14 18:40:00,
2013-03-14 13:45:00,36.3,27.2,30.13,SW,234,0.0,4.0,69,0.00,,,0.00,WUHU216DAVISVP2,2013-03-14 18:45:00,
2013-03-14 13:50:00,36.4,26.6,30.13,South,182,0.0,4.0,67,0.00,,,0.00,WUHU216DAVISVP2,2013-03-14 18:50:00,
2013-03-14 13:55:00,36.5,26.3,30.12,South,184,0.0,5.0,66,0.00,,,0.00,WUHU216DAVISVP2,2013-03-14 18:55:00,
2013-03-14 14:00:00,35.7,25.5,30.12,South,186,0.0,6.0,66,0.00,,,0.00,WUHU216DAVISVP2,2013-03-14 19:00:00,
2013-03-14 14:05:00,35.3,25.9,30.12,South,188,0.0,6.0,68,0.00,,,0.00,WUHU216DAVISVP2,2013-03-14 19:05:00,
2013-03-14 14:10:00,35.8,26.7,30.12,South,189,0.0,3.0,69,0.00,,,0.00,WUHU216DAVISVP2,2013-03-14 19:10:00,
2013-03-14 14:15:00,36.2,26.4,30.12,SSW,194,0.0,0.0,67,0.00,,,0.00,WUHU216DAVISVP2,2013-03-14 19:15:00,
2013-03-14 14:20:00,35.8,25.6,30.12,SSW,192,0.0,0.0,66,0.00,,,0.00,WUHU216DAVISVP2,2013-03-14 19:20:00,
2013-03-14 14:25:00,34.8,25.4,30.12,SSW,193,0.0,4.0,68,0.00,,,0.00,WUHU216DAVISVP2,2013-03-14 19:25:00,
2013-03-14 14:30:00,35.0,26.3,30.13,SSW,200,0.0,4.0,70,0.00,,,0.00,WUHU216DAVISVP2,2013-03-14 19:30:00,
2013-03-14 14:35:00,36.1,27.0,30.13,SSW,213,0.0,0.0,69,0.00,,,0.00,WUHU216DAVISVP2,2013-03-14 19:35:00,
2013-03-14 14:40:00,36.6,27.1,30.13,SSW,204,0.0,5.0,68,0.00,,,0.00,WUHU216DAVISVP2,2013-03-14 19:40:00,
2013-03-14 14:45:00,36.4,26.6,30.13,SSW,200,0.0,5.0,67,0.00,,,0.00,WUHU216DAVISVP2,2013-03-14 19:45:00,
2013-03-14 14:50:00,36.6,27.1,30.13,SSW,209,0.0,5.0,68,0.00,,,0.00,WUHU216DAVISVP2,2013-03-14 19:50:00,
2013-03-14 14:55:00,36.6,26.4,30.12,SSW,197,0.0,6.0,66,0.00,,,0.00,WUHU216DAVISVP2,2013-03-14 19:55:00,
2013-03-14 15:00:00,36.0,26.5,30.12,South,188,1.0,6.0,68,0.00,,,0.00,WUHU216DAVISVP2,2013-03-14 20:00:00,
2013-03-14 15:05:00,36.0,26.5,30.12,SSW,196,0.0,6.0,68,0.00,,,0.00,WUHU216DAVISVP2,2013-03-14 20:05:00,
2013-03-14 15:10:00,36.6,27.5,30.12,SSW,204,0.0,3.0,69,0.00,,,0.00,WUHU216DAVISVP2,2013-03-14 20:10:00,
2013-03-14 15:15:00,37.0,27.1,30.12,SSW,202,0.0,2.0,67,0.00,,,0.00,WUHU216DAVISVP2,2013-03-14 20:15:00,
2013-03-14 15:20:00,37.5,27.6,30.12,SSW,199,0.0,2.0,67,0.00,,,0.00,WUHU216DAVISVP2,2013-03-14 20:20:00,
2013-03-14 15:25:00,37.3,27.4,30.12,SSW,202,0.0,2.0,67,0.00,,,0.00,WUHU216DAVISVP2,2013-03-14 20:25:00,
2013-03-14 15:30:00,37.8,27.5,30.11,SSW,210,0.0,3.0,66,0.00,,,0.00,WUHU216DAVISVP2,2013-03-14 20:30:00,
2013-03-14 15:35:00,38.4,28.1,30.11,SSW,211,0.0,3.0,66,0.00,,,0.00,WUHU216DAVISVP2,2013-03-14 20:35:00,
2013-03-14 15:40:00,39.0,28.3,30.11,SW,214,0.0,0.0,65,0.00,,,0.00,WUHU216DAVISVP2,2013-03-14 20:40:00,
2013-03-14 15:45:00,39.2,28.1,30.11,SW,215,0.0,1.0,64,0.00,,,0.00,WUHU216DAVISVP2,2013-03-14 20:45:00,
2013-03-14 15:50:00,39.5,28.4,30.11,SW,215,0.0,1.0,64,0.00,,,0.00,WUHU216DAVISVP2,2013-03-14 20:50:00,
2013-03-14 15:55:00,39.3,27.4,30.11,SSW,198,0.0,1.0,62,0.00,,,0.00,WUHU216DAVISVP2,2013-03-14 20:55:00,
2013-03-14 16:00:00,37.8,26.8,30.10,SSW,200,0.0,2.0,64,0.00,,,0.00,WUHU216DAVISVP2,2013-03-14 21:00:00,
2013-03-14 16:05:00,37.9,27.6,30.10,SSW,205,3.0,3.0,66,0.00,,,0.00,WUHU216DAVISVP2,2013-03-14 21:05:00,
2013-03-14 16:10:00,38.3,27.6,30.10,SSW,205,0.0,3.0,65,0.00,,,0.00,WUHU216DAVISVP2,2013-03-14 21:10:00,
2013-03-14 16:15:00,38.5,28.2,30.10,SSW,205,0.0,3.0,66,0.00,,,0.00,WUHU216DAVISVP2,2013-03-14 21:15:00,
2013-03-14 16:20:00,38.4,27.0,30.10,SSW,205,0.0,0.0,63,0.00,,,0.00,WUHU216DAVISVP2,2013-03-14 21:20:00,
2013-03-14 16:25:00,38.1,27.4,30.10,SSW,205,0.0,0.0,65,0.00,,,0.00,WUHU216DAVISVP2,2013-03-14 21:25:00,
2013-03-14 16:30:00,37.9,27.3,30.10,SSW,202,0.0,3.0,65,0.00,,,0.00,WUHU216DAVISVP2,2013-03-14 21:30:00,
2013-03-14 16:35:00,37.8,27.2,30.10,SSW,206,0.0,3.0,65,0.00,,,0.00,WUHU216DAVISVP2,2013-03-14 21:35:00,
2013-03-14 16:40:00,38.0,27.4,30.10,SSW,207,0.0,1.0,65,0.00,,,0.00,WUHU216DAVISVP2,2013-03-14 21:40:00,
2013-03-14 16:45:00,38.0,27.4,30.10,SSW,208,0.0,2.0,65,0.00,,,0.00,WUHU216DAVISVP2,2013-03-14 21:45:00,
2013-03-14 16:50:00,38.3,27.6,30.10,SSW,207,0.0,2.0,65,0.00,,,0.00,WUHU216DAVISVP2,2013-03-14 21:50:00,
2013-03-14 16:55:00,38.2,27.2,30.10,SSW,207,0.0,0.0,64,0.00,,,0.00,WUHU216DAVISVP2,2013-03-14 21:55:00,
2013-03-14 17:00:00,37.8,26.8,30.10,SSW,206,0.0,0.0,64,0.00,,,0.00,WUHU216DAVISVP2,2013-03-14 22:00:00,
2013-03-14 17:05:00,37.2,26.6,30.10,SSW,206,0.0,6.0,65,0.00,,,0.00,WUHU216DAVISVP2,2013-03-14 22:05:00,
2013-03-14 17:10:00,36.7,26.8,30.10,SSW,202,3.0,6.0,67,0.00,,,0.00,WUHU216DAVISVP2,2013-03-14 22:10:00,
2013-03-14 17:15:00,36.4,26.6,30.10,SSW,203,0.0,6.0,67,0.00,,,0.00,WUHU216DAVISVP2,2013-03-14 22:15:00,
2013-03-14 17:20:00,36.6,27.1,30.10,SSW,209,0.0,5.0,68,0.00,,,0.00,WUHU216DAVISVP2,2013-03-14 22:20:00,
2013-03-14 17:25:00,37.3,27.4,30.10,SSW,213,0.0,3.0,67,0.00,,,0.00,WUHU216DAVISVP2,2013-03-14 22:25:00,
2013-03-14 17:30:00,37.7,27.4,30.10,SW,217,0.0,0.0,66,0.00,,,0.00,WUHU216DAVISVP2,2013-03-14 22:30:00,
2013-03-14 17:35:00,38.0,27.7,30.10,SW,217,0.0,0.0,66,0.00,,,0.00,WUHU216DAVISVP2,2013-03-14 22:35:00,
2013-03-14 17:40:00,37.9,27.3,30.09,SW,215,0.0,3.0,65,0.00,,,0.00,WUHU216DAVISVP2,2013-03-14 22:40:00,
2013-03-14 17:45:00,37.5,27.2,30.09,SW,214,0.0,3.0,66,0.00,,,0.00,WUHU216DAVISVP2,2013-03-14 22:45:00,
2013-03-14 17:50:00,36.7,26.5,30.09,SSW,192,0.0,4.0,66,0.00,,,0.00,WUHU216DAVISVP2,2013-03-14 22:50:00,
2013-03-14 17:55:00,36.1,26.3,30.09,SSW,192,0.0,4.0,67,0.00,,,0.00,WUHU216DAVISVP2,2013-03-14 22:55:00,
2013-03-14 18:00:00,36.1,26.3,30.09,SSW,194,0.0,0.0,67,0.00,,,0.00,WUHU216DAVISVP2,2013-03-14 23:00:00,
2013-03-14 18:05:00,36.3,26.8,30.08,SSW,194,0.0,0.0,68,0.00,,,0.00,WUHU216DAVISVP2,2013-03-14 23:05:00,
2013-03-14 18:10:00,36.3,26.8,30.09,SSW,193,0.0,0.0,68,0.00,,,0.00,WUHU216DAVISVP2,2013-03-14 23:10:00,
2013-03-14 18:15:00,36.4,26.9,30.09,SSW,194,0.0,0.0,68,0.00,,,0.00,WUHU216DAVISVP2,2013-03-14 23:15:00,
2013-03-14 18:20:00,36.5,27.0,30.09,SSW,194,0.0,0.0,68,0.00,,,0.00,WUHU216DAVISVP2,2013-03-14 23:20:00,
2013-03-14 18:25:00,36.4,26.9,30.08,SSW,194,0.0,0.0,68,0.00,,,0.00,WUHU216DAVISVP2,2013-03-14 23:25:00,
2013-03-14 18:30:00,36.1,26.6,30.09,SSW,194,0.0,0.0,68,0.00,,,0.00,WUHU216DAVISVP2,2013-03-14 23:30:00,
2013-03-14 18:35:00,35.8,26.7,30.09,SSW,194,0.0,0.0,69,0.00,,,0.00,WUHU216DAVISVP2,2013-03-14 23:35:00,
2013-03-14 18:40:00,35.5,26.4,30.09,SSW,194,0.0,0.0,69,0.00,,,0.00,WUHU216DAVISVP2,2013-03-14 23:40:00,
2013-03-14 18:45:00,35.2,26.5,30.09,SSW,194,0.0,0.0,70,0.00,,,0.00,WUHU216DAVISVP2,2013-03-14 23:45:00,
2013-03-14 18:50:00,34.6,25.9,30.10,SSW,206,0.0,0.0,70,0.00,,,0.00,WUHU216DAVISVP2,2013-03-14 23:50:00,
2013-03-14 18:55:00,34.2,25.8,30.10,SW,217,0.0,0.0,71,0.00,,,0.00,WUHU216DAVISVP2,2013-03-14 23:55:00,
2013-03-14 19:00:00,33.7,25.7,30.11,West,280,0.0,5.0,72,0.00,,,0.00,WUHU216DAVISVP2,2013-03-15 00:00:00,
2013-03-14 19:05:00,33.2,25.5,30.11,WNW,292,2.0,5.0,73,0.00,,,0.00,WUHU216DAVISVP2,2013-03-15 00:05:00,
2013-03-14 19:10:00,32.9,25.6,30.11,WNW,283,0.0,4.0,74,0.00,,,0.00,WUHU216DAVISVP2,2013-03-15 00:10:00,
2013-03-14 19:15:00,32.6,25.6,30.10,WNW,284,0.0,3.0,75,0.00,,,0.00,WUHU216DAVISVP2,2013-03-15 00:15:00,
2013-03-14 19:20:00,32.3,25.3,30.11,WNW,284,0.0,1.0,75,0.00,,,0.00,WUHU216DAVISVP2,2013-03-15 00:20:00,
2013-03-14 19:25:00,31.9,25.2,30.11,WNW,284,0.0,1.0,76,0.00,,,0.00,WUHU216DAVISVP2,2013-03-15 00:25:00,
2013-03-14 19:30:00,31.6,25.2,30.11,WNW,284,0.0,0.0,77,0.00,,,0.00,WUHU216DAVISVP2,2013-03-15 00:30:00,
2013-03-14 19:35:00,31.4,25.1,30.11,WNW,286,0.0,0.0,77,0.00,,,0.00,WUHU216DAVISVP2,2013-03-15 00:35:00,
2013-03-14 19:40:00,31.2,25.2,30.11,WNW,288,0.0,0.0,78,0.00,,,0.00,WUHU216DAVISVP2,2013-03-15 00:40:00,
2013-03-14 19:45:00,31.0,25.0,30.11,WNW,288,0.0,0.0,78,0.00,,,0.00,WUHU216DAVISVP2,2013-03-15 00:45:00,
2013-03-14 19:50:00,30.7,25.0,30.11,WNW,288,0.0,0.0,79,0.00,,,0.00,WUHU216DAVISVP2,2013-03-15 00:50:00,
2013-03-14 19:55:00,30.5,24.8,30.12,WNW,294,0.0,0.0,79,0.00,,,0.00,WUHU216DAVISVP2,2013-03-15 00:55:00,
2013-03-14 20:00:00,30.1,24.7,30.12,WNW,294,0.0,0.0,80,0.00,,,0.00,WUHU216DAVISVP2,2013-03-15 01:00:00,
2013-03-14 20:05:00,29.8,24.4,30.12,WNW,294,0.0,0.0,80,0.00,,,0.00,WUHU216DAVISVP2,2013-03-15 01:05:00,
2013-03-14 20:10:00,29.4,24.3,30.11,WNW,294,0.0,0.0,81,0.00,,,0.00,WUHU216DAVISVP2,2013-03-15 01:10:00,
2013-03-14 20:15:00,29.2,24.1,30.12,WNW,294,0.0,0.0,81,0.00,,,0.00,WUHU216DAVISVP2,2013-03-15 01:15:00,
2013-03-14 20:20:00,29.0,23.9,30.12,WNW,294,0.0,0.0,81,0.00,,,0.00,WUHU216DAVISVP2,2013-03-15 01:20:00,
2013-03-14 20:25:00,28.8,23.7,30.11,WNW,297,0.0,0.0,81,0.00,,,0.00,WUHU216DAVISVP2,2013-03-15 01:25:00,
2013-03-14 20:30:00,28.7,23.6,30.12,NW,309,0.0,3.0,81,0.00,,,0.00,WUHU216DAVISVP2,2013-03-15 01:30:00,
2013-03-14 20:35:00,28.1,22.7,30.12,NNW,335,0.0,7.0,80,0.00,,,0.00,WUHU216DAVISVP2,2013-03-15 01:35:00,
2013-03-14 20:40:00,27.5,22.1,30.12,NNE,15,3.0,10.0,80,0.00,,,0.00,WUHU216DAVISVP2,2013-03-15 01:40:00,
2013-03-14 20:45:00,26.8,21.2,30.12,North,9,0.0,10.0,79,0.00,,,0.00,WUHU216DAVISVP2,2013-03-15 01:45:00,
2013-03-14 20:50:00,26.3,20.4,30.12,NNW,348,4.0,10.0,78,0.00,,,0.00,WUHU216DAVISVP2,2013-03-15 01:50:00,
2013-03-14 20:55:00,26.0,20.1,30.11,North,360,2.0,10.0,78,0.00,,,0.00,WUHU216DAVISVP2,2013-03-15 01:55:00,
2013-03-14 21:00:00,25.6,20.0,30.12,NNE,24,5.0,10.0,79,0.00,,,0.00,WUHU216DAVISVP2,2013-03-15 02:00:00,
2013-03-14 21:05:00,25.1,19.5,30.12,NNE,21,5.0,12.0,79,0.00,,,0.00,WUHU216DAVISVP2,2013-03-15 02:05:00,
2013-03-14 21:10:00,24.9,19.3,30.11,NNE,22,4.0,12.0,79,0.00,,,0.00,WUHU216DAVISVP2,2013-03-15 02:10:00,
2013-03-14 21:15:00,24.9,19.6,30.11,NNE,16,0.0,11.0,80,0.00,,,0.00,WUHU216DAVISVP2,2013-03-15 02:15:00,
2013-03-14 21:20:00,24.7,19.4,30.11,NNE,20,5.0,8.0,80,0.00,,,0.00,WUHU216DAVISVP2,2013-03-15 02:20:00,
2013-03-14 21:25:00,24.6,19.3,30.12,North,355,2.0,5.0,80,0.00,,,0.00,WUHU216DAVISVP2,2013-03-15 02:25:00,
2013-03-14 21:30:00,24.6,19.3,30.12,North,11,0.0,5.0,80,0.00,,,0.00,WUHU216DAVISVP2,2013-03-15 02:30:00,
2013-03-14 21:35:00,24.6,19.3,30.12,North,360,0.0,4.0,80,0.00,,,0.00,WUHU216DAVISVP2,2013-03-15 02:35:00,
2013-03-14 21:40:00,24.5,19.2,30.12,NNE,21,2.0,5.0,80,0.00,,,0.00,WUHU216DAVISVP2,2013-03-15 02:40:00,
2013-03-14 21:45:00,24.4,19.1,30.12,North,10,2.0,6.0,80,0.00,,,0.00,WUHU216DAVISVP2,2013-03-15 02:45:00,
2013-03-14 21:50:00,24.2,18.6,30.13,North,10,1.0,6.0,79,0.00,,,0.00,WUHU216DAVISVP2,2013-03-15 02:50:00,
2013-03-14 21:55:00,24.1,18.5,30.13,North,355,4.0,7.0,79,0.00,,,0.00,WUHU216DAVISVP2,2013-03-15 02:55:00,
2013-03-14 22:00:00,23.9,18.3,30.13,NNE,12,7.0,7.0,79,0.00,,,0.00,WUHU216DAVISVP2,2013-03-15 03:00:00,
2013-03-14 22:05:00,23.8,18.0,30.13,NNE,17,0.0,12.0,78,0.00,,,0.00,WUHU216DAVISVP2,2013-03-15 03:05:00,
2013-03-14 22:10:00,23.9,18.1,30.14,North,5,2.0,12.0,78,0.00,,,0.00,WUHU216DAVISVP2,2013-03-15 03:10:00,
2013-03-14 22:15:00,23.8,18.0,30.14,NNW,346,3.0,7.0,78,0.00,,,0.00,WUHU216DAVISVP2,2013-03-15 03:15:00,
2013-03-14 22:20:00,23.7,17.9,30.14,North,355,3.0,7.0,78,0.00,,,0.00,WUHU216DAVISVP2,2013-03-15 03:20:00,
2013-03-14 22:25:00,23.5,17.4,30.13,NNW,345,3.0,9.0,77,0.00,,,0.00,WUHU216DAVISVP2,2013-03-15 03:25:00,
2013-03-14 22:30:00,23.3,17.2,30.13,North,5,2.0,13.0,77,0.00,,,0.00,WUHU216DAVISVP2,2013-03-15 03:30:00,
2013-03-14 22:35:00,23.2,17.1,30.12,NNE,14,4.0,13.0,77,0.00,,,0.00,WUHU216DAVISVP2,2013-03-15 03:35:00,
2013-03-14 22:40:00,23.0,16.9,30.13,NNE,15,3.0,12.0,77,0.00,,,0.00,WUHU216DAVISVP2,2013-03-15 03:40:00,
2013-03-14 22:45:00,22.9,17.1,30.13,North,360,2.0,12.0,78,0.00,,,0.00,WUHU216DAVISVP2,2013-03-15 03:45:00,
2013-03-14 22:50:00,22.8,17.0,30.13,NNE,16,2.0,12.0,78,0.00,,,0.00,WUHU216DAVISVP2,2013-03-15 03:50:00,
2013-03-14 22:55:00,22.8,17.3,30.12,NE,38,3.0,11.0,79,0.00,,,0.00,WUHU216DAVISVP2,2013-03-15 03:55:00,
2013-03-14 23:00:00,22.7,17.2,30.12,NNE,17,4.0,11.0,79,0.00,,,0.00,WUHU216DAVISVP2,2013-03-15 04:00:00,
2013-03-14 23:05:00,22.6,17.1,30.12,North,360,6.0,12.0,79,0.00,,,0.00,WUHU216DAVISVP2,2013-03-15 04:05:00,
2013-03-14 23:10:00,22.6,17.1,30.14,NNW,348,4.0,12.0,79,0.00,,,0.00,WUHU216DAVISVP2,2013-03-15 04:10:00,
2013-03-14 23:15:00,22.6,17.1,30.13,NNW,338,4.0,9.0,79,0.00,,,0.00,WUHU216DAVISVP2,2013-03-15 04:15:00,
2013-03-14 23:20:00,22.6,17.1,30.14,North,360,0.0,6.0,79,0.00,,,0.00,WUHU216DAVISVP2,2013-03-15 04:20:00,
2013-03-14 23:25:00,22.4,16.9,30.13,North,360,2.0,11.0,79,0.00,,,0.00,WUHU216DAVISVP2,2013-03-15 04:25:00,
2013-03-14 23:30:00,22.4,16.9,30.12,North,5,6.0,11.0,79,0.00,,,0.00,WUHU216DAVISVP2,2013-03-15 04:30:00,
2013-03-14 23:35:00,22.2,16.7,30.12,NNE,22,6.0,11.0,79,0.00,,,0.00,WUHU216DAVISVP2,2013-03-15 04:35:00,
2013-03-14 23:40:00,22.1,16.9,30.12,North,9,4.0,11.0,80,0.00,,,0.00,WUHU216DAVISVP2,2013-03-15 04:40:00,
2013-03-14 23:45:00,22.1,16.9,30.12,NNW,346,5.0,7.0,80,0.00,,,0.00,WUHU216DAVISVP2,2013-03-15 04:45:00,
2013-03-14 23:50:00,22.2,17.3,30.12,North,5,5.0,10.0,81,0.00,,,0.00,WUHU216DAVISVP2,2013-03-15 04:50:00,
2013-03-14 23:55:00,22.1,17.2,30.12,NNE,17,3.0,10.0,81,0.00,,,0.00,WUHU216DAVISVP2,2013-03-15 04:55:00,